createdAt,value
2022-09-18T10:18:58.152Z,3.50
2022-09-18T10:21:29.313Z,2.40
2022-09-18T10:24:01.903Z,3.15
2022-09-18T10:26:50.349Z,3.23
2022-09-18T10:29:29.968Z,2.70
2022-09-18T10:32:07.210Z,2.70
2022-09-18T10:34:43.657Z,3.33
2022-09-18T10:37:41.126Z,2.97
2022-09-18T10:40:34.494Z,3.57
2022-09-18T10:43:07.806Z,2.43
2022-09-18T10:45:54.569Z,2.17
2022-09-18T10:48:32.698Z,2.20
2022-09-18T10:51:08.957Z,2.15
2022-09-18T10:53:56.720Z,2.30
2022-09-18T10:56:38.846Z,2.90
2022-09-18T10:59:28.826Z,2.10
2022-09-18T11:02:04.955Z,1.83
2022-09-18T11:04:43.007Z,2.37
2022-09-18T11:07:16.448Z,2.00
2022-09-18T11:10:07.493Z,1.67
2022-09-18T11:12:37.351Z,2.13
2022-09-18T11:15:21.618Z,1.53
2022-09-18T11:17:57.331Z,2.50
2022-09-18T11:20:31.290Z,1.83
2022-09-18T11:23:29.766Z,1.70
2022-09-18T11:26:22.492Z,1.80
2022-09-18T11:29:30.190Z,1.80
2022-09-18T11:32:22.226Z,2.13
2022-09-18T11:35:05.482Z,1.40
2022-09-18T11:37:52.702Z,1.42
2022-09-18T11:40:33.627Z,1.13
2022-09-18T11:43:18.324Z,1.45
2022-09-18T11:46:17.554Z,1.45
2022-09-18T11:49:14.897Z,1.30
2022-09-18T11:51:56.439Z,1.10
2022-09-18T11:54:35.710Z,1.10
2022-09-18T11:57:14.104Z,0.95
2022-09-18T11:59:52.161Z,1.20
2022-09-18T12:03:10.931Z,1.02
2022-09-18T12:06:01.748Z,1.17
2022-09-18T12:08:59.383Z,0.98
2022-09-18T12:11:51.340Z,1.08
2022-09-18T12:14:39.228Z,1.00
2022-09-18T12:17:37.813Z,1.23
2022-09-18T12:20:35.033Z,1.05
2022-09-18T12:23:19.986Z,1.05
2022-09-18T12:26:11.344Z,0.88
2022-09-18T12:29:08.571Z,1.30
2022-09-18T12:32:01.511Z,1.55
2022-09-18T12:34:57.102Z,0.63
2022-09-18T12:37:52.142Z,0.70
2022-09-18T12:40:42.743Z,0.90
2022-09-18T12:43:37.214Z,1.00
2022-09-18T12:46:28.146Z,0.93
2022-09-18T12:49:19.249Z,1.50
2022-09-18T12:52:04.498Z,0.85
2022-09-18T12:54:47.997Z,1.20
2022-09-18T12:57:38.972Z,0.63
2022-09-18T13:00:24.467Z,0.70
2022-09-18T13:03:04.310Z,0.70
2022-09-18T13:06:07.076Z,0.50
2022-09-18T13:08:56.051Z,0.65
2022-09-18T13:11:26.526Z,0.90
2022-09-18T13:14:00.906Z,0.77
2022-09-18T13:16:35.478Z,0.57
2022-09-18T13:19:47.970Z,0.45
2022-09-18T13:22:21.987Z,0.80
2022-09-18T13:25:09.116Z,0.52
2022-09-18T13:27:40.947Z,0.47
2022-09-18T13:30:28.803Z,0.28
2022-09-18T13:33:26.984Z,0.10
2022-09-18T13:35:57.474Z,0.30
2022-09-18T13:38:36.877Z,0.30
2022-09-18T13:41:15.650Z,0.10
2022-09-18T13:43:53.202Z,0.45
2022-09-18T13:46:34.949Z,0.20
2022-09-18T13:49:15.465Z,0.10
2022-09-18T13:51:54.393Z,0.20
2022-09-18T13:54:32.771Z,0.20
2022-09-18T13:57:18.362Z,0.08
2022-09-18T13:59:56.075Z,0.30
2022-09-18T14:02:30.418Z,0.35
2022-09-18T14:05:21.685Z,0.10
2022-09-18T14:08:04.879Z,0.03
2022-09-18T14:10:45.216Z,0.00
2022-09-18T14:13:36.117Z,0.00
2022-09-18T14:16:08.360Z,0.00
2022-09-18T14:18:50.007Z,0.00
2022-09-18T14:21:43.927Z,0.10
2022-09-18T14:24:36.200Z,0.10
2022-09-18T14:27:25.952Z,0.00
2022-09-18T14:30:05.607Z,0.10
2022-09-18T14:32:42.838Z,0.20
2022-09-18T14:35:44.042Z,0.00
2022-09-18T14:38:38.732Z,0.00
2022-09-18T14:41:21.706Z,0.05
2022-09-18T14:44:05.808Z,0.00
2022-09-18T14:46:36.253Z,0.15
2022-09-18T14:49:07.034Z,0.10
2022-09-18T14:52:03.131Z,0.00
2022-09-18T14:54:45.865Z,0.00
2022-09-18T14:57:21.517Z,0.03
2022-09-18T15:00:00.379Z,0.00
2022-09-18T15:02:44.781Z,0.32
2022-09-18T15:05:13.534Z,0.00
2022-09-18T15:07:52.664Z,0.00
2022-09-18T15:10:22.233Z,0.00
2022-09-18T15:15:31.598Z,0.03
2022-09-18T15:18:02.904Z,0.10
2022-09-18T15:20:33.331Z,0.00
2022-09-18T15:23:03.646Z,0.00
2022-09-18T15:25:37.438Z,0.68
2022-09-18T15:28:08.906Z,0.00
2022-09-18T15:30:41.152Z,0.08
2022-09-18T15:33:20.189Z,0.00
2022-09-18T15:35:58.140Z,0.10
2022-09-18T15:38:31.860Z,0.10
2022-09-18T15:41:02.597Z,0.00
2022-09-18T15:44:00.422Z,0.38
2022-09-18T15:46:32.467Z,0.30
2022-09-18T15:49:03.161Z,0.20
2022-09-18T15:51:36.921Z,0.40
2022-09-18T15:54:27.773Z,0.22
2022-09-18T15:57:04.709Z,1.02
2022-09-18T15:59:41.537Z,0.50
2022-09-18T16:02:28.236Z,1.10
2022-09-18T16:05:01.753Z,0.50
2022-09-18T16:07:34.859Z,0.77
2022-09-18T16:10:03.753Z,0.40
2022-09-18T16:12:42.607Z,0.20
2022-09-18T16:15:30.854Z,0.17
2022-09-18T16:18:08.777Z,0.10
2022-09-18T16:20:46.635Z,0.40
2022-09-18T16:23:26.703Z,0.30
2022-09-18T16:26:08.471Z,0.47
2022-09-18T16:31:22.345Z,0.30
2022-09-18T16:34:14.152Z,0.20
2022-09-18T16:36:49.247Z,0.30
2022-09-18T16:39:25.005Z,0.00
2022-09-18T16:41:56.638Z,0.30
2022-09-18T16:44:36.369Z,0.20
2022-09-18T16:47:16.041Z,0.03
2022-09-18T16:49:50.146Z,0.20
2022-09-18T16:52:27.466Z,0.20
2022-09-18T16:54:59.060Z,0.30
2022-09-18T17:00:05.236Z,0.17
2022-09-18T17:02:43.494Z,0.10
2022-09-18T17:05:13.970Z,0.10
2022-09-18T17:07:45.641Z,0.03
2022-09-18T17:10:29.787Z,0.00
2022-09-18T17:13:02.799Z,0.00
2022-09-18T17:15:33.467Z,0.10
2022-09-18T17:18:07.723Z,0.37
2022-09-18T17:20:39.608Z,0.30
2022-09-18T17:23:13.592Z,0.10
2022-09-18T17:25:41.579Z,0.40
2022-09-18T17:28:24.173Z,0.30
2022-09-18T17:30:55.911Z,0.32
2022-09-18T17:33:27.116Z,0.20
2022-09-18T17:35:57.706Z,0.40
2022-09-18T17:38:34.469Z,0.37
2022-09-18T17:41:08.793Z,0.20
2022-09-18T17:43:39.103Z,0.23
2022-09-18T17:46:19.604Z,0.50
2022-09-18T17:49:09.365Z,0.90
2022-09-18T17:51:41.828Z,1.03
2022-09-18T17:54:19.864Z,0.70
2022-09-18T17:56:51.501Z,0.93
2022-09-18T17:59:25.202Z,0.60
2022-09-18T18:02:07.760Z,1.40
2022-09-18T18:04:41.232Z,1.10
2022-09-18T18:07:12.724Z,1.27
2022-09-18T18:09:56.231Z,0.65
2022-09-18T18:12:32.473Z,0.70
2022-09-18T18:15:03.561Z,1.27
2022-09-18T18:17:38.073Z,1.77
2022-09-18T18:20:09.804Z,0.87
2022-09-18T18:22:46.146Z,1.47
2022-09-18T18:25:31.901Z,0.67
2022-09-18T18:28:00.539Z,0.60
2022-09-18T18:30:47.071Z,0.63
2022-09-18T18:33:34.090Z,0.60
2022-09-18T18:36:18.535Z,1.00
2022-09-18T18:38:58.462Z,0.40
2022-09-18T18:41:29.818Z,0.23
2022-09-18T18:44:07.943Z,0.22
2022-09-18T18:46:40.135Z,0.37
2022-09-18T18:49:23.616Z,0.73
2022-09-18T18:51:56.021Z,0.57
2022-09-18T18:54:26.386Z,0.88
2022-09-18T18:56:58.911Z,0.43
2022-09-18T18:59:32.625Z,0.70
2022-09-18T19:02:09.789Z,0.60
2022-09-18T19:04:43.319Z,0.60
2022-09-18T19:07:17.654Z,0.67
2022-09-18T19:10:00.824Z,0.50
2022-09-18T19:12:30.685Z,0.33
2022-09-18T19:15:01.331Z,0.30
2022-09-18T19:17:32.984Z,0.20
2022-09-18T19:20:05.584Z,0.15
2022-09-18T19:22:39.279Z,0.10
2022-09-18T19:25:13.931Z,0.30
2022-09-18T19:27:48.036Z,0.00
2022-09-18T19:30:16.182Z,0.80
2022-09-18T19:32:48.498Z,0.77
2022-09-18T19:35:22.881Z,1.20
2022-09-18T19:37:56.623Z,1.27
2022-09-18T19:40:39.316Z,1.30
2022-09-18T19:43:16.797Z,0.80
2022-09-18T19:45:48.479Z,0.67
2022-09-18T19:48:25.400Z,0.60
2022-09-18T19:50:56.767Z,1.73
2022-09-18T19:53:28.946Z,1.33
2022-09-18T19:56:00.578Z,1.87
2022-09-18T19:58:38.238Z,1.13
2022-09-18T20:01:16.176Z,0.93
2022-09-18T20:03:50.384Z,1.27
2022-09-18T20:06:22.788Z,0.60
2022-09-18T20:09:06.474Z,0.30
2022-09-18T20:11:48.163Z,0.40
2022-09-18T20:16:57.192Z,0.50
2022-09-18T20:19:33.882Z,0.33
2022-09-18T20:22:11.331Z,0.60
2022-09-18T20:24:45.070Z,0.50
2022-09-18T20:27:16.491Z,0.33
2022-09-18T20:29:52.304Z,0.60
2022-09-18T20:32:21.985Z,0.60
2022-09-18T20:34:54.968Z,0.40
2022-09-18T20:37:36.034Z,0.30
2022-09-18T20:40:06.959Z,0.63
2022-09-18T20:42:45.689Z,0.43
2022-09-18T20:45:21.114Z,0.70
2022-09-18T20:47:52.857Z,0.73
2022-09-18T20:53:05.543Z,1.10
2022-09-18T20:55:36.128Z,0.53
2022-09-18T20:58:15.612Z,0.43
2022-09-18T21:00:45.049Z,0.60
2022-09-18T21:03:23.312Z,0.60
2022-09-18T21:06:18.695Z,0.57
2022-09-18T21:08:57.474Z,0.50
2022-09-18T21:11:29.346Z,0.30
2022-09-18T21:14:23.940Z,0.60
2022-09-18T21:16:57.998Z,0.60
2022-09-18T21:19:31.275Z,0.47
2022-09-18T21:22:14.532Z,0.00
2022-09-18T21:24:46.533Z,0.20
2022-09-18T21:27:16.684Z,0.30
2022-09-18T21:29:50.523Z,0.17
2022-09-18T21:32:20.466Z,0.40
2022-09-18T21:34:49.229Z,0.40
2022-09-18T21:37:19.384Z,0.20
2022-09-18T21:39:49.317Z,0.33
2022-09-18T21:42:20.518Z,1.33
2022-09-18T21:44:50.313Z,0.52
2022-09-18T21:47:21.485Z,0.67
2022-09-18T21:49:56.162Z,0.82
2022-09-18T21:52:35.275Z,0.97
2022-09-18T21:55:03.378Z,1.77
2022-09-18T21:57:32.326Z,0.97
2022-09-18T22:00:02.502Z,0.80
2022-09-18T22:02:54.975Z,0.30
2022-09-18T22:05:26.076Z,0.70
2022-09-18T22:07:58.215Z,0.40
2022-09-18T22:10:29.904Z,0.70
2022-09-18T22:13:03.303Z,0.93
2022-09-18T22:15:34.815Z,1.00
2022-09-18T22:18:11.912Z,0.70
2022-09-18T22:20:48.153Z,0.47
2022-09-18T22:23:18.057Z,1.00
2022-09-18T22:25:48.438Z,0.73
2022-09-18T22:28:26.050Z,0.80
2022-09-18T22:30:59.190Z,0.80
2022-09-18T22:33:37.093Z,0.50
2022-09-18T22:36:12.517Z,0.70
2022-09-18T22:38:43.673Z,0.60
2022-09-18T22:41:22.106Z,0.73
2022-09-18T22:43:59.095Z,0.60
2022-09-18T22:46:29.641Z,0.40
2022-09-18T22:49:01.834Z,0.50
2022-09-18T22:51:32.222Z,0.37
2022-09-18T22:54:08.873Z,0.33
2022-09-18T22:56:56.435Z,0.50
2022-09-18T22:59:27.272Z,0.50
2022-09-18T23:02:19.428Z,1.33
2022-09-18T23:07:28.103Z,0.33
2022-09-18T23:10:05.737Z,0.50
2022-09-18T23:12:36.397Z,0.30
2022-09-18T23:15:06.747Z,0.57
2022-09-18T23:17:43.431Z,0.50
2022-09-18T23:20:29.321Z,0.10
2022-09-18T23:23:11.972Z,0.27
2022-09-18T23:25:50.284Z,0.20
2022-09-18T23:28:33.545Z,0.50
2022-09-18T23:31:15.866Z,0.80
2022-09-18T23:33:50.541Z,0.57
2022-09-18T23:36:23.889Z,0.37
2022-09-18T23:39:03.713Z,0.37
2022-09-18T23:41:37.579Z,0.97
2022-09-18T23:44:07.809Z,0.63
2022-09-18T23:46:55.017Z,0.30
2022-09-18T23:49:28.886Z,0.70
2022-09-18T23:52:02.465Z,0.50
2022-09-18T23:54:38.321Z,0.53
2022-09-18T23:57:08.651Z,0.50
2022-09-18T23:59:47.320Z,0.53
